Time;durP1;ratioP1;P1;durP2;ratioP2;P2;SDS_P1;SDS_P2;PMS_P1;PMS_P2;Temp;Humidity;BMP_temperature;BMP_pressure;BME280_temperature;BME280_humidity;BME280_pressure;Samples;Min_cycle;Max_cycle;Signal;HPM_P1;HPM_P2
2021/06/27 00:01:09;;;;;;;14.80;13.50;;;18.10;99.90;;;;;;5117103;28;20638;-48
2021/06/27 00:03:35;;;;;;;15.57;14.17;;;18.00;99.90;;;;;;5116694;28;20683;-46
2021/06/27 00:06:01;;;;;;;14.73;13.30;;;18.00;99.90;;;;;;5116844;28;20421;-44
2021/06/27 00:08:26;;;;;;;14.47;13.23;;;18.00;99.90;;;;;;5116405;28;20561;-44
2021/06/27 00:10:56;;;;;;;15.50;14.17;;;17.90;99.90;;;;;;5117112;28;20176;-45
2021/06/27 00:13:22;;;;;;;15.33;13.67;;;17.90;99.90;;;;;;5117094;28;20171;-45
2021/06/27 00:15:49;;;;;;;15.00;13.70;;;17.90;99.90;;;;;;5116950;28;20432;-45
2021/06/27 00:18:17;;;;;;;15.57;14.27;;;17.90;99.90;;;;;;5117107;28;20461;-44
2021/06/27 00:20:44;;;;;;;17.30;15.53;;;17.80;99.90;;;;;;5098330;28;20786;-45
2021/06/27 00:23:11;;;;;;;17.17;15.43;;;17.80;99.90;;;;;;5116716;28;20877;-46
2021/06/27 00:25:37;;;;;;;15.40;14.00;;;17.80;99.90;;;;;;5117044;28;20823;-44
2021/06/27 00:28:04;;;;;;;15.20;13.90;;;17.80;99.90;;;;;;5116638;28;20413;-44
2021/06/27 00:30:30;;;;;;;14.23;13.03;;;17.80;99.90;;;;;;5116822;28;20873;-44
2021/06/27 00:32:56;;;;;;;15.57;14.17;;;17.70;99.90;;;;;;5098341;28;20437;-46
2021/06/27 00:35:24;;;;;;;15.40;14.10;;;17.70;99.90;;;;;;5116707;28;20176;-45
2021/06/27 00:37:50;;;;;;;14.63;13.23;;;17.70;99.90;;;;;;5116398;28;20524;-43
2021/06/27 00:40:19;;;;;;;15.10;13.80;;;17.70;99.90;;;;;;5116665;28;20528;-44
2021/06/27 00:42:44;;;;;;;14.57;13.27;;;17.60;99.90;;;;;;5116774;28;20172;-44
2021/06/27 00:45:12;;;;;;;12.97;11.87;;;17.60;99.90;;;;;;5117227;28;20437;-45
2021/06/27 00:47:40;;;;;;;14.07;12.87;;;17.60;99.90;;;;;;5120324;28;20216;-46
2021/06/27 00:50:12;;;;;;;13.13;12.03;;;17.60;99.90;;;;;;5120667;28;20424;-46
2021/06/27 00:52:37;;;;;;;14.10;12.90;;;17.60;99.90;;;;;;5120581;28;20421;-46
2021/06/27 00:55:04;;;;;;;13.90;12.60;;;17.50;99.90;;;;;;5120211;28;20476;-44
2021/06/27 00:57:29;;;;;;;13.73;12.30;;;17.50;99.90;;;;;;5120620;28;20458;-46
2021/06/27 00:59:55;;;;;;;12.90;11.80;;;17.50;99.90;;;;;;5101955;28;20412;-44
2021/06/27 01:02:21;;;;;;;13.97;12.63;;;17.40;99.90;;;;;;5120827;28;20186;-44
2021/06/27 01:04:46;;;;;;;13.00;11.80;;;17.40;99.90;;;;;;5121418;28;20451;-45
2021/06/27 01:07:12;;;;;;;12.53;11.37;;;17.40;99.90;;;;;;5121291;28;20210;-44
2021/06/27 01:09:38;;;;;;;13.10;12.00;;;17.40;99.90;;;;;;5121661;28;20521;-45
2021/06/27 01:12:04;;;;;;;14.30;12.97;;;17.40;99.90;;;;;;5120991;28;20584;-45
2021/06/27 01:14:30;;;;;;;15.17;13.70;;;17.40;99.90;;;;;;5121110;28;20432;-44
2021/06/27 01:16:56;;;;;;;15.30;13.90;;;17.40;99.90;;;;;;5120723;28;20861;-45
2021/06/27 01:19:21;;;;;;;13.57;12.40;;;17.40;99.90;;;;;;5120800;28;20168;-47
2021/06/27 01:21:51;;;;;;;14.07;12.60;;;17.40;99.90;;;;;;5121854;28;20182;-45
2021/06/27 01:24:17;;;;;;;13.77;12.37;;;17.40;99.90;;;;;;5121438;28;20548;-45
2021/06/27 01:26:43;;;;;;;14.50;13.20;;;17.30;99.90;;;;;;5120558;28;20537;-44
2021/06/27 01:29:10;;;;;;;13.90;12.60;;;17.30;99.90;;;;;;5102943;28;20418;-45
2021/06/27 01:31:36;;;;;;;20.80;12.70;;;17.30;99.90;;;;;;5120892;28;20404;-45
2021/06/27 01:34:02;;;;;;;14.17;12.90;;;17.30;99.90;;;;;;5123313;27;20979;-44
2021/06/27 01:36:28;;;;;;;15.03;13.53;;;17.40;99.90;;;;;;5141199;27;20413;-45
2021/06/27 01:38:53;;;;;;;14.00;12.80;;;17.40;99.90;;;;;;5123146;27;20486;-47
2021/06/27 01:41:20;;;;;;;13.20;12.00;;;17.40;99.90;;;;;;5141481;27;20428;-44
2021/06/27 01:43:46;;;;;;;12.93;11.63;;;17.40;99.90;;;;;;5123007;27;20580;-44
2021/06/27 01:46:12;;;;;;;12.83;11.73;;;17.40;99.90;;;;;;5140377;27;20431;-45
2021/06/27 01:48:37;;;;;;;13.47;12.27;;;17.30;99.90;;;;;;5140939;27;20513;-47
2021/06/27 01:51:06;;;;;;;14.53;13.07;;;17.30;99.90;;;;;;5138116;27;20183;-45
2021/06/27 01:53:35;;;;;;;13.67;12.30;;;17.30;99.90;;;;;;5139568;27;20627;-44
2021/06/27 01:56:07;;;;;;;13.83;12.53;;;17.30;99.90;;;;;;5139472;27;20505;-50
2021/06/27 01:58:40;;;;;;;15.33;13.70;;;17.30;99.90;;;;;;5138460;27;20567;-44
2021/06/27 02:01:17;;;;;;;14.17;12.77;;;17.30;99.90;;;;;;5136826;27;20456;-45
2021/06/27 02:03:44;;;;;;;14.93;13.70;;;17.30;99.90;;;;;;5140388;27;20432;-46
2021/06/27 02:06:10;;;;;;;14.30;12.93;;;17.20;99.90;;;;;;5140217;27;20422;-46
2021/06/27 02:08:39;;;;;;;15.60;14.20;;;17.20;99.90;;;;;;5140352;27;20524;-45
2021/06/27 02:11:07;;;;;;;16.60;15.10;;;17.20;99.90;;;;;;5134136;27;20183;-45
2021/06/27 02:13:33;;;;;;;14.90;13.60;;;17.10;99.90;;;;;;5132401;27;20695;-45
2021/06/27 02:15:59;;;;;;;14.60;13.20;;;17.10;99.90;;;;;;5135457;27;20421;-44
2021/06/27 02:18:34;;;;;;;14.23;13.03;;;17.00;99.90;;;;;;5139978;27;20461;-44
2021/06/27 02:21:06;;;;;;;15.10;13.70;;;17.00;99.90;;;;;;5137484;27;20173;-45
2021/06/27 02:23:32;;;;;;;14.40;13.10;;;17.00;99.90;;;;;;5139744;27;20501;-49
2021/06/27 02:25:58;;;;;;;13.73;12.53;;;17.00;99.90;;;;;;5119573;27;20424;-45
2021/06/27 02:28:24;;;;;;;12.77;11.77;;;17.00;99.90;;;;;;5140001;27;20739;-44
2021/06/27 02:30:50;;;;;;;14.33;13.10;;;17.00;99.90;;;;;;5139817;27;20488;-44
2021/06/27 02:33:16;;;;;;;14.47;13.17;;;17.00;99.90;;;;;;5139600;27;20477;-43
2021/06/27 02:35:42;;;;;;;14.40;13.00;;;17.00;99.90;;;;;;5139423;27;20440;-46
2021/06/27 02:38:07;;;;;;;14.77;13.37;;;17.00;99.90;;;;;;5120980;27;20942;-44
2021/06/27 02:40:34;;;;;;;14.97;13.47;;;17.00;99.90;;;;;;5119750;28;20194;-43
2021/06/27 02:42:59;;;;;;;14.17;12.80;;;16.90;99.90;;;;;;5130871;27;20270;-44
2021/06/27 02:45:25;;;;;;;13.80;12.40;;;16.90;99.90;;;;;;5140174;27;20777;-44
2021/06/27 02:47:50;;;;;;;13.63;12.43;;;16.80;99.90;;;;;;5121533;27;20429;-44
2021/06/27 02:50:17;;;;;;;13.07;11.87;;;16.80;99.90;;;;;;5139992;27;20179;-46
2021/06/27 02:52:43;;;;;;;12.37;11.27;;;16.80;99.90;;;;;;5137751;27;20265;-43
2021/06/27 02:55:11;;;;;;;13.43;12.13;;;16.80;99.90;;;;;;5139274;27;20475;-44
2021/06/27 02:57:41;;;;;;;12.73;11.60;;;16.80;99.90;;;;;;5139807;27;20524;-45
2021/06/27 03:00:16;;;;;;;12.70;11.57;;;16.80;99.90;;;;;;5138744;27;20424;-44
2021/06/27 03:02:42;;;;;;;11.93;10.93;;;16.80;99.90;;;;;;5136603;27;20427;-45
2021/06/27 03:05:08;;;;;;;13.20;12.10;;;16.80;99.90;;;;;;5135897;27;20413;-44
2021/06/27 03:07:34;;;;;;;13.30;12.20;;;16.80;99.90;;;;;;5138797;27;20507;-44
2021/06/27 03:10:00;;;;;;;12.73;11.53;;;16.90;99.90;;;;;;5138896;27;20516;-45
2021/06/27 03:12:26;;;;;;;13.43;12.20;;;16.90;99.90;;;;;;5136398;27;20443;-44
2021/06/27 03:14:51;;;;;;;13.90;12.60;;;16.90;99.90;;;;;;5131656;27;20183;-44
2021/06/27 03:17:17;;;;;;;12.60;11.60;;;16.90;99.90;;;;;;5139176;27;20293;-45
2021/06/27 03:19:43;;;;;;;12.93;11.63;;;17.00;99.90;;;;;;5139268;27;20186;-46
2021/06/27 03:22:08;;;;;;;12.90;11.70;;;17.00;99.90;;;;;;5138391;27;20179;-45
2021/06/27 03:24:34;;;;;;;11.47;10.30;;;16.90;99.90;;;;;;5120188;27;20187;-46
2021/06/27 03:27:00;;;;;;;13.27;12.07;;;17.00;99.90;;;;;;5118748;28;20172;-45
2021/06/27 03:29:25;;;;;;;12.17;11.10;;;16.90;99.90;;;;;;5135445;27;20332;-44
2021/06/27 03:31:51;;;;;;;12.27;11.23;;;16.90;99.90;;;;;;5134167;27;20171;-45
2021/06/27 03:34:17;;;;;;;12.77;11.63;;;16.90;99.90;;;;;;5126653;27;20175;-45
2021/06/27 03:36:43;;;;;;;12.70;11.60;;;16.90;99.90;;;;;;5139199;27;20179;-45
2021/06/27 03:39:11;;;;;;;14.57;11.50;;;16.90;99.90;;;;;;5138732;27;20203;-45
2021/06/27 03:41:50;;;;;;;11.77;10.60;;;16.90;99.90;;;;;;5139035;27;20453;-46
2021/06/27 03:44:15;;;;;;;14.57;11.80;;;16.90;99.90;;;;;;5118808;28;20425;-43
2021/06/27 03:46:41;;;;;;;13.57;12.47;;;16.90;99.90;;;;;;5118234;28;20413;-46
2021/06/27 03:49:07;;;;;;;11.53;10.53;;;17.00;99.90;;;;;;5137307;27;20257;-48
2021/06/27 03:51:32;;;;;;;12.33;11.23;;;16.90;99.90;;;;;;5120761;27;20174;-44
2021/06/27 03:53:58;;;;;;;11.77;10.67;;;17.00;99.90;;;;;;5119026;27;20299;-47
2021/06/27 03:56:24;;;;;;;12.87;11.67;;;17.00;99.90;;;;;;5138876;27;20525;-44
2021/06/27 03:58:50;;;;;;;12.23;11.23;;;17.00;99.90;;;;;;5138794;27;20203;-45
2021/06/27 04:01:16;;;;;;;13.37;12.07;;;17.00;99.90;;;;;;5138951;27;20179;-46
2021/06/27 04:03:42;;;;;;;15.50;12.00;;;17.00;99.90;;;;;;5137134;27;20857;-42
2021/06/27 04:06:07;;;;;;;12.50;11.40;;;17.00;99.90;;;;;;5138800;27;20515;-42
2021/06/27 04:08:33;;;;;;;12.67;11.57;;;17.20;99.90;;;;;;5120534;28;20178;-43
2021/06/27 04:10:59;;;;;;;12.73;11.07;;;17.40;99.90;;;;;;5138684;27;20183;-43
2021/06/27 04:13:31;;;;;;;12.07;10.97;;;17.60;99.90;;;;;;5132406;27;20437;-42
2021/06/27 04:15:57;;;;;;;10.53;9.63;;;17.90;99.90;;;;;;5118353;28;20183;-43
2021/06/27 04:18:24;;;;;;;11.67;10.50;;;18.10;99.90;;;;;;5118550;28;20484;-42
2021/06/27 04:20:50;;;;;;;10.93;10.00;;;18.30;99.90;;;;;;5123714;28;20490;-42
2021/06/27 04:23:16;;;;;;;10.10;9.30;;;18.40;99.70;;;;;;5130167;27;20922;-42
2021/06/27 04:25:42;;;;;;;11.30;10.23;;;18.60;99.50;;;;;;5145161;27;20443;-43
2021/06/27 04:28:08;;;;;;;10.43;9.53;;;18.70;99.20;;;;;;5145421;27;20257;-43
2021/06/27 04:30:37;;;;;;;9.97;9.13;;;18.70;98.90;;;;;;5145502;27;20816;-42
2021/06/27 04:33:04;;;;;;;10.63;9.63;;;18.90;98.70;;;;;;5141620;27;20171;-43
2021/06/27 04:35:33;;;;;;;11.77;10.70;;;18.90;98.50;;;;;;5117535;27;20528;-43
2021/06/27 04:37:58;;;;;;;11.80;10.83;;;19.10;98.30;;;;;;5144997;27;20491;-43
2021/06/27 04:40:24;;;;;;;10.83;9.90;;;19.10;98.20;;;;;;5145449;27;20829;-42
2021/06/27 04:42:50;;;;;;;11.60;10.60;;;19.10;98.30;;;;;;5145225;27;20174;-43
2021/06/27 04:45:15;;;;;;;11.33;10.43;;;19.20;98.20;;;;;;5129662;27;20191;-42
2021/06/27 04:47:41;;;;;;;11.13;10.23;;;19.30;98.10;;;;;;5124510;28;20620;-42
2021/06/27 04:50:07;;;;;;;11.70;10.50;;;19.30;98.10;;;;;;5121191;27;20194;-42
2021/06/27 04:52:33;;;;;;;11.30;10.17;;;19.30;98.00;;;;;;5137251;27;20437;-42
2021/06/27 04:54:59;;;;;;;11.57;10.53;;;19.30;98.10;;;;;;5124714;27;20766;-42
2021/06/27 04:57:25;;;;;;;11.60;10.60;;;19.30;98.10;;;;;;5124323;28;20487;-43
2021/06/27 04:59:51;;;;;;;11.40;10.47;;;19.20;98.00;;;;;;5124589;28;20432;-45
2021/06/27 05:02:16;;;;;;;11.90;10.70;;;19.20;98.20;;;;;;5139473;27;20235;-42
2021/06/27 05:04:42;;;;;;;11.20;10.33;;;19.10;98.60;;;;;;5145087;27;20178;-42
2021/06/27 05:07:07;;;;;;;11.70;10.57;;;19.20;98.50;;;;;;5145444;27;20167;-44
2021/06/27 05:09:33;;;;;;;10.40;9.53;;;19.30;98.40;;;;;;5145543;27;20436;-44
2021/06/27 05:11:59;;;;;;;11.17;10.17;;;19.40;98.10;;;;;;5143383;27;20175;-45
2021/06/27 05:14:24;;;;;;;11.93;10.93;;;19.50;97.80;;;;;;5145049;27;20186;-43
2021/06/27 05:16:50;;;;;;;12.00;11.00;;;19.60;97.60;;;;;;5145112;27;20607;-42
2021/06/27 05:19:15;;;;;;;11.70;10.70;;;19.70;97.60;;;;;;5145017;27;20653;-43
2021/06/27 05:21:41;;;;;;;11.40;10.50;;;19.70;97.70;;;;;;5143307;27;20179;-42
2021/06/27 05:24:07;;;;;;;10.93;10.10;;;19.70;97.80;;;;;;5145487;27;20171;-43
2021/06/27 05:26:33;;;;;;;11.63;10.63;;;19.70;98.00;;;;;;5145503;27;20455;-42
2021/06/27 05:28:58;;;;;;;11.47;10.53;;;19.80;97.80;;;;;;5137184;27;20175;-44
2021/06/27 05:31:24;;;;;;;12.70;11.60;;;19.90;97.60;;;;;;5122413;28;20328;-43
2021/06/27 05:33:49;;;;;;;11.90;10.70;;;20.00;97.40;;;;;;5121144;28;20171;-43
2021/06/27 05:36:15;;;;;;;14.90;11.43;;;20.10;97.20;;;;;;5120997;28;20228;-43
2021/06/27 05:38:41;;;;;;;13.70;12.30;;;20.20;97.20;;;;;;5104745;27;20241;-45
2021/06/27 05:41:07;;;;;;;12.57;11.57;;;20.20;97.20;;;;;;5142005;27;20174;-44
2021/06/27 05:43:32;;;;;;;13.50;12.40;;;20.30;96.90;;;;;;5142299;27;20178;-44
2021/06/27 05:45:58;;;;;;;12.70;11.60;;;20.30;96.80;;;;;;5141996;27;20636;-44
2021/06/27 05:48:24;;;;;;;10.67;9.67;;;20.40;96.70;;;;;;5130729;27;20209;-43
2021/06/27 05:50:50;;;;;;;12.40;11.30;;;20.40;96.70;;;;;;5120224;28;20477;-43
2021/06/27 05:53:16;;;;;;;11.93;11.00;;;20.40;96.60;;;;;;5119864;28;20227;-43
2021/06/27 05:55:41;;;;;;;12.17;10.97;;;20.60;96.40;;;;;;5120369;28;20184;-46
2021/06/27 05:58:07;;;;;;;12.80;11.50;;;20.60;96.30;;;;;;5102848;28;20489;-44
2021/06/27 06:00:33;;;;;;;13.00;11.70;;;20.60;96.30;;;;;;5120664;28;20190;-43
2021/06/27 06:02:58;;;;;;;12.17;10.90;;;20.60;96.30;;;;;;5120888;28;20237;-44
2021/06/27 06:05:24;;;;;;;12.30;11.00;;;20.70;96.30;;;;;;5120760;28;20179;-44
2021/06/27 06:07:51;;;;;;;11.23;10.23;;;20.80;96.10;;;;;;5118033;27;20176;-45
2021/06/27 06:10:17;;;;;;;11.40;10.43;;;20.90;96.10;;;;;;5101162;28;20284;-44
2021/06/27 06:12:42;;;;;;;10.33;9.53;;;21.00;95.80;;;;;;5119279;28;20660;-43
2021/06/27 06:15:09;;;;;;;11.70;10.80;;;21.20;95.70;;;;;;5120164;28;20172;-42
2021/06/27 06:17:34;;;;;;;10.73;9.83;;;21.30;95.50;;;;;;5127691;27;20204;-43
2021/06/27 06:20:00;;;;;;;10.57;9.70;;;21.40;95.40;;;;;;5139131;27;20832;-45
2021/06/27 06:22:27;;;;;;;10.63;9.73;;;21.40;95.60;;;;;;5136480;27;20179;-43
2021/06/27 06:24:52;;;;;;;9.47;8.77;;;21.50;95.40;;;;;;5138678;27;20194;-44
2021/06/27 06:27:18;;;;;;;7.30;6.80;;;21.70;95.20;;;;;;5118711;27;20865;-45
2021/06/27 06:29:43;;;;;;;7.03;6.40;;;21.80;94.70;;;;;;5118297;28;20180;-44
2021/06/27 06:32:09;;;;;;;8.10;6.50;;;21.90;93.80;;;;;;5118896;27;20184;-44
2021/06/27 06:34:35;;;;;;;8.07;7.40;;;21.90;93.60;;;;;;5140269;27;20189;-45
2021/06/27 06:37:00;;;;;;;7.20;6.60;;;22.10;93.80;;;;;;5139724;27;20218;-44
2021/06/27 06:39:26;;;;;;;7.10;6.53;;;22.20;93.20;;;;;;5140237;27;20236;-44
2021/06/27 06:41:52;;;;;;;6.80;6.30;;;22.30;93.20;;;;;;5130735;27;20187;-43
2021/06/27 06:44:17;;;;;;;5.70;5.20;;;22.30;92.90;;;;;;5119295;28;20168;-43
2021/06/27 06:46:43;;;;;;;6.83;6.13;;;22.20;92.90;;;;;;5119862;28;20172;-43
2021/06/27 06:49:09;;;;;;;5.60;5.17;;;22.20;93.10;;;;;;5119470;28;20257;-44
2021/06/27 06:51:34;;;;;;;6.67;6.07;;;22.10;93.10;;;;;;5121151;27;20187;-44
2021/06/27 06:54:00;;;;;;;6.43;5.83;;;22.10;93.10;;;;;;5119807;28;20231;-45
2021/06/27 06:56:25;;;;;;;6.70;6.07;;;22.20;93.10;;;;;;5119753;28;20191;-43
2021/06/27 06:58:52;;;;;;;6.20;5.80;;;22.40;93.00;;;;;;5100690;28;20215;-45
2021/06/27 07:01:17;;;;;;;6.87;6.37;;;22.60;92.50;;;;;;5117996;27;20180;-45
2021/06/27 07:03:45;;;;;;;6.80;6.30;;;22.80;92.50;;;;;;5116597;28;20428;-45
2021/06/27 07:06:10;;;;;;;6.53;6.03;;;22.90;92.50;;;;;;5116605;28;20315;-45
2021/06/27 07:08:36;;;;;;;6.90;6.30;;;23.10;91.80;;;;;;5116164;28;20442;-43
2021/06/27 07:11:02;;;;;;;6.30;5.80;;;23.30;92.00;;;;;;5118082;27;20426;-44
2021/06/27 07:13:27;;;;;;;5.90;5.30;;;23.40;91.50;;;;;;5116898;28;20176;-43
2021/06/27 07:15:53;;;;;;;6.53;5.93;;;23.70;91.30;;;;;;5117531;28;20203;-45
2021/06/27 07:18:19;;;;;;;6.80;6.30;;;23.80;91.30;;;;;;5117824;28;20203;-43
2021/06/27 07:20:45;;;;;;;7.23;6.60;;;24.00;91.10;;;;;;5118269;27;20228;-42
2021/06/27 07:23:11;;;;;;;6.37;5.70;;;24.20;90.20;;;;;;5123828;27;20463;-43
2021/06/27 07:25:36;;;;;;;5.80;5.40;;;24.30;90.20;;;;;;5139741;27;20202;-42
2021/06/27 07:28:02;;;;;;;6.70;6.20;;;24.30;89.80;;;;;;5139254;27;20202;-43
2021/06/27 07:30:28;;;;;;;6.73;6.23;;;24.10;90.00;;;;;;5139489;27;20552;-43
2021/06/27 07:32:54;;;;;;;6.67;6.07;;;24.10;90.20;;;;;;5139328;27;20867;-43
2021/06/27 07:35:19;;;;;;;6.80;6.20;;;24.10;90.10;;;;;;5121326;27;20179;-39
2021/06/27 07:37:45;;;;;;;7.00;6.40;;;24.10;90.20;;;;;;5139667;27;20217;-40
2021/06/27 07:40:11;;;;;;;6.63;6.10;;;24.20;90.30;;;;;;5117988;28;20241;-40
2021/06/27 07:42:37;;;;;;;6.37;5.93;;;24.30;90.40;;;;;;5117909;28;20184;-40
2021/06/27 07:45:04;;;;;;;6.43;5.93;;;24.50;89.80;;;;;;5107352;27;20420;-39
2021/06/27 07:47:30;;;;;;;6.70;6.20;;;24.50;89.20;;;;;;5138827;27;20622;-43
2021/06/27 07:49:55;;;;;;;6.90;6.40;;;24.80;90.70;;;;;;5138121;27;20956;-39
2021/06/27 07:52:21;;;;;;;6.60;6.00;;;25.10;87.60;;;;;;5138606;27;20179;-40
2021/06/27 07:54:47;;;;;;;7.03;6.43;;;25.30;87.40;;;;;;5138576;27;20250;-42
2021/06/27 07:57:12;;;;;;;6.27;5.77;;;25.40;87.60;;;;;;5133411;27;20553;-39
2021/06/27 07:59:38;;;;;;;6.63;6.13;;;25.40;88.40;;;;;;5119018;28;20564;-40
2021/06/27 08:02:04;;;;;;;6.17;5.60;;;25.40;87.90;;;;;;5117980;28;20461;-39
2021/06/27 08:04:30;;;;;;;7.00;6.40;;;25.70;84.80;;;;;;5117553;28;20184;-39
2021/06/27 08:06:55;;;;;;;6.00;5.50;;;25.90;85.70;;;;;;5118275;28;20402;-39
2021/06/27 08:09:21;;;;;;;8.50;6.47;;;26.20;84.20;;;;;;5138337;27;20186;-39
2021/06/27 08:11:47;;;;;;;6.70;6.10;;;26.00;84.90;;;;;;5139320;27;20257;-39
2021/06/27 08:14:12;;;;;;;6.10;5.60;;;26.30;86.70;;;;;;5103605;28;20171;-38
2021/06/27 08:16:38;;;;;;;6.63;6.03;;;26.40;86.20;;;;;;5137370;27;20187;-42
2021/06/27 08:19:05;;;;;;;6.27;5.80;;;26.80;80.70;;;;;;5138556;28;20253;-39
2021/06/27 08:21:32;;;;;;;6.63;6.13;;;26.80;79.60;;;;;;5138441;28;20182;-41
2021/06/27 08:23:59;;;;;;;6.70;6.20;;;26.70;79.20;;;;;;5136293;28;20686;-41
2021/06/27 08:26:24;;;;;;;6.30;5.70;;;26.30;78.90;;;;;;5118484;28;20515;-39
2021/06/27 08:28:51;;;;;;;6.77;6.20;;;26.20;79.50;;;;;;5137904;28;20511;-40
2021/06/27 08:31:17;;;;;;;6.57;5.97;;;25.90;80.90;;;;;;5137033;28;20493;-41
2021/06/27 08:33:43;;;;;;;6.53;5.57;;;25.90;82.00;;;;;;5136675;28;20417;-38
2021/06/27 08:36:08;;;;;;;6.10;5.60;;;26.10;84.70;;;;;;5124871;28;20731;-40
2021/06/27 08:38:34;;;;;;;6.63;5.90;;;26.50;81.80;;;;;;5115050;28;20445;-42
2021/06/27 08:40:59;;;;;;;6.37;5.97;;;26.80;79.00;;;;;;5115345;28;20236;-40
2021/06/27 08:43:31;;;;;;;6.97;6.37;;;27.10;77.50;;;;;;5115437;28;20180;-39
2021/06/27 08:45:58;;;;;;;6.43;5.77;;;27.30;78.20;;;;;;5118340;28;20235;-40
2021/06/27 08:48:26;;;;;;;5.50;5.10;;;27.50;76.70;;;;;;5137346;28;20420;-41
2021/06/27 08:50:53;;;;;;;6.33;5.83;;;27.70;74.20;;;;;;5137265;28;20488;-41
2021/06/27 08:53:20;;;;;;;5.27;4.87;;;27.60;75.00;;;;;;5137476;28;20932;-40
2021/06/27 08:55:46;;;;;;;6.03;5.60;;;27.70;73.40;;;;;;5122676;28;20858;-40
2021/06/27 08:58:12;;;;;;;6.10;5.70;;;28.00;73.10;;;;;;5098817;28;20763;-39
2021/06/27 09:00:38;;;;;;;6.00;5.57;;;28.10;72.70;;;;;;5116075;28;20421;-40
2021/06/27 09:03:07;;;;;;;5.17;4.77;;;28.20;73.00;;;;;;5116276;28;20334;-40
2021/06/27 09:05:34;;;;;;;5.97;5.47;;;28.00;70.40;;;;;;5117258;28;20963;-40
2021/06/27 09:08:16;;;;;;;5.83;5.33;;;28.00;73.70;;;;;;5121217;28;20421;-40
2021/06/27 09:10:42;;;;;;;6.33;5.83;;;28.40;71.20;;;;;;5103215;28;20436;-39
2021/06/27 09:13:08;;;;;;;4.73;4.43;;;28.30;71.00;;;;;;5121621;28;20417;-39
2021/06/27 09:15:40;;;;;;;6.50;5.90;;;28.00;72.40;;;;;;5104069;28;20420;-39
2021/06/27 09:18:08;;;;;;;5.60;5.20;;;28.00;70.20;;;;;;5121385;28;20468;-41
2021/06/27 09:20:35;;;;;;;5.67;5.17;;;28.00;70.50;;;;;;5103472;28;20498;-39
2021/06/27 09:23:00;;;;;;;5.53;5.13;;;28.10;71.80;;;;;;5121577;28;20777;-40
2021/06/27 09:25:29;;;;;;;5.30;4.80;;;28.20;72.90;;;;;;5122052;28;20420;-40
2021/06/27 09:28:05;;;;;;;6.47;5.97;;;28.40;72.50;;;;;;5120121;27;20171;-40
2021/06/27 09:30:52;;;;;;;5.67;5.00;;;28.60;69.20;;;;;;5140459;27;20407;-41
2021/06/27 09:33:19;;;;;;;6.10;5.60;;;28.50;68.30;;;;;;5139133;27;20436;-39
2021/06/27 09:35:51;;;;;;;5.77;5.37;;;28.60;67.90;;;;;;5140117;27;20718;-40
2021/06/27 09:38:20;;;;;;;5.57;5.17;;;28.40;65.90;;;;;;5140771;27;20595;-39
2021/06/27 09:40:47;;;;;;;6.07;5.57;;;28.20;66.90;;;;;;5139781;27;20431;-40
2021/06/27 09:43:13;;;;;;;6.00;5.60;;;28.20;67.90;;;;;;5141400;27;20473;-40
2021/06/27 09:45:47;;;;;;;6.07;5.60;;;28.40;68.70;;;;;;5123212;27;20422;-41
2021/06/27 09:48:13;;;;;;;5.63;5.23;;;28.40;66.40;;;;;;5141193;27;20198;-41
2021/06/27 09:50:39;;;;;;;4.97;4.57;;;28.30;67.30;;;;;;5141325;27;20412;-40
2021/06/27 09:53:05;;;;;;;5.87;5.47;;;28.40;67.80;;;;;;5140779;27;20424;-40
2021/06/27 09:55:30;;;;;;;4.80;4.50;;;28.70;67.50;;;;;;5141877;27;20171;-42
2021/06/27 09:58:17;;;;;;;5.00;4.60;;;28.90;64.90;;;;;;5141002;27;20209;-42
2021/06/27 10:00:43;;;;;;;5.00;4.60;;;29.10;62.90;;;;;;5141186;27;20171;-40
2021/06/27 10:03:10;;;;;;;5.47;5.07;;;29.50;64.60;;;;;;5123380;27;20868;-40
2021/06/27 10:05:36;;;;;;;4.80;4.50;;;29.90;63.60;;;;;;5141432;27;20291;-40
2021/06/27 10:08:02;;;;;;;4.70;4.30;;;30.30;60.90;;;;;;5122373;27;20725;-41
2021/06/27 10:10:28;;;;;;;5.03;4.63;;;30.30;56.80;;;;;;5106015;27;20409;-39
2021/06/27 10:12:54;;;;;;;4.70;4.33;;;30.30;58.20;;;;;;5139984;27;20417;-37
2021/06/27 10:15:20;;;;;;;5.13;4.73;;;30.20;57.60;;;;;;5140861;27;20168;-38
2021/06/27 10:17:48;;;;;;;4.37;4.07;;;30.00;56.70;;;;;;5139891;27;20206;-39
2021/06/27 10:20:16;;;;;;;4.70;4.30;;;29.80;58.50;;;;;;5139439;27;20431;-38
2021/06/27 10:22:45;;;;;;;4.70;4.30;;;30.00;56.80;;;;;;5140660;27;20434;-40
2021/06/27 10:25:13;;;;;;;4.10;3.80;;;29.90;56.30;;;;;;5140513;27;20519;-41
2021/06/27 10:27:41;;;;;;;4.00;3.70;;;30.10;55.90;;;;;;5140241;27;20435;-39
2021/06/27 10:30:10;;;;;;;4.70;4.30;;;30.70;56.40;;;;;;5122432;27;20420;-39
2021/06/27 10:32:42;;;;;;;5.33;4.93;;;31.20;55.90;;;;;;5140072;27;20413;-38
2021/06/27 10:35:09;;;;;;;4.80;4.50;;;31.60;55.40;;;;;;5139193;27;20644;-40
2021/06/27 10:37:38;;;;;;;4.27;3.97;;;32.00;55.80;;;;;;5140288;27;20671;-39
2021/06/27 10:40:15;;;;;;;3.63;3.43;;;32.20;55.10;;;;;;5140317;27;20428;-40
2021/06/27 10:42:50;;;;;;;5.07;4.67;;;32.50;53.00;;;;;;5140722;27;20402;-39
2021/06/27 10:45:15;;;;;;;5.57;5.13;;;32.60;51.40;;;;;;5139814;27;20390;-39
2021/06/27 10:47:41;;;;;;;5.00;4.60;;;32.90;50.70;;;;;;5139053;27;20399;-38
2021/06/27 10:50:08;;;;;;;4.40;4.00;;;32.80;52.70;;;;;;5118660;27;20250;-39
2021/06/27 10:52:56;;;;;;;5.27;4.13;;;32.80;50.10;;;;;;5137649;27;20177;-40
2021/06/27 10:55:29;;;;;;;4.60;4.30;;;33.20;51.90;;;;;;5138131;27;20594;-40
2021/06/27 10:57:59;;;;;;;4.50;4.20;;;33.70;50.10;;;;;;5119907;27;20474;-39
2021/06/27 11:00:27;;;;;;;4.77;4.47;;;33.90;47.60;;;;;;5138968;27;20625;-39
2021/06/27 11:02:53;;;;;;;4.97;4.47;;;33.10;49.20;;;;;;5137227;27;20413;-39
2021/06/27 11:05:28;;;;;;;4.17;3.83;;;33.40;48.30;;;;;;5122060;27;20430;-42
2021/06/27 11:07:55;;;;;;;4.50;4.20;;;33.70;49.80;;;;;;5139772;27;20451;-39
2021/06/27 11:10:24;;;;;;;4.77;4.37;;;34.20;46.20;;;;;;5121897;27;20416;-38
2021/06/27 11:13:01;;;;;;;4.40;4.10;;;34.00;46.20;;;;;;5121742;27;20443;-39
2021/06/27 11:15:29;;;;;;;4.10;3.80;;;33.50;46.10;;;;;;5139499;27;20527;-39
2021/06/27 11:17:56;;;;;;;3.70;3.43;;;33.00;45.60;;;;;;5138913;27;20526;-38
2021/06/27 11:20:22;;;;;;;3.70;3.40;;;32.90;46.30;;;;;;5137995;27;20661;-39
2021/06/27 11:22:56;;;;;;;4.40;4.10;;;33.10;45.80;;;;;;5139030;27;20429;-39
2021/06/27 11:25:45;;;;;;;4.17;3.87;;;33.00;44.40;;;;;;5138459;27;20428;-39
2021/06/27 11:28:21;;;;;;;4.83;4.33;;;33.20;45.80;;;;;;5139115;27;20451;-40
2021/06/27 11:30:52;;;;;;;4.57;4.27;;;33.10;45.60;;;;;;5138209;27;20849;-39
2021/06/27 11:33:21;;;;;;;3.90;3.60;;;33.50;45.50;;;;;;5138072;27;20456;-40
2021/06/27 11:35:57;;;;;;;4.17;3.87;;;33.80;45.90;;;;;;5138618;27;20453;-39
2021/06/27 11:38:38;;;;;;;3.80;3.50;;;34.50;44.60;;;;;;5140009;27;20521;-40
2021/06/27 11:41:09;;;;;;;3.50;3.30;;;34.80;43.70;;;;;;5139731;27;20465;-40
2021/06/27 11:44:02;;;;;;;4.03;3.73;;;34.80;42.50;;;;;;5138316;27;20397;-39
2021/06/27 11:46:32;;;;;;;4.37;3.97;;;35.00;42.70;;;;;;5138021;27;20657;-40
2021/06/27 11:48:59;;;;;;;3.50;3.30;;;35.00;41.80;;;;;;5137916;27;20483;-39
2021/06/27 11:51:57;;;;;;;3.63;3.33;;;34.40;42.50;;;;;;5138452;27;20842;-39
2021/06/27 11:54:29;;;;;;;4.20;3.90;;;33.50;44.10;;;;;;5082237;27;20488;-38
2021/06/27 11:57:04;;;;;;;4.47;4.17;;;32.90;43.70;;;;;;5138516;27;20385;-39
2021/06/27 11:59:33;;;;;;;4.97;3.40;;;32.20;44.40;;;;;;5120823;27;20796;-36
2021/06/27 12:02:11;;;;;;;3.80;3.50;;;31.80;45.50;;;;;;5137800;27;20516;-38
2021/06/27 12:04:41;;;;;;;4.40;4.00;;;31.60;45.50;;;;;;5138099;27;20418;-37
2021/06/27 12:07:39;;;;;;;3.80;3.50;;;32.20;45.20;;;;;;5137971;27;20421;-37
2021/06/27 12:10:20;;;;;;;5.20;4.80;;;32.70;45.80;;;;;;5120910;27;20410;-38
2021/06/27 12:12:56;;;;;;;3.50;3.23;;;33.00;45.30;;;;;;5137549;27;20689;-37
2021/06/27 12:15:27;;;;;;;4.03;3.73;;;33.80;42.60;;;;;;5137886;27;20416;-37
2021/06/27 12:18:12;;;;;;;3.63;3.33;;;34.20;45.40;;;;;;5138264;28;20482;-38
2021/06/27 12:20:48;;;;;;;3.63;3.33;;;34.40;41.30;;;;;;5138110;28;20518;-38
2021/06/27 12:23:26;;;;;;;3.67;3.37;;;34.00;41.50;;;;;;5138087;28;20426;-37
2021/06/27 12:26:01;;;;;;;5.00;3.30;;;33.50;41.80;;;;;;5138090;28;20721;-37
2021/06/27 12:28:35;;;;;;;3.20;3.00;;;33.00;42.00;;;;;;5137280;28;20673;-37
2021/06/27 12:31:06;;;;;;;3.73;3.43;;;33.00;42.00;;;;;;5138486;28;20413;-38
2021/06/27 12:33:37;;;;;;;3.80;3.50;;;33.50;41.30;;;;;;5139010;28;20395;-37
2021/06/27 12:36:08;;;;;;;4.90;4.40;;;33.60;42.00;;;;;;5138009;28;20853;-38
2021/06/27 12:38:34;;;;;;;6.10;5.70;;;34.00;41.00;;;;;;5137129;28;20443;-39
2021/06/27 12:41:10;;;;;;;3.40;3.20;;;34.50;40.60;;;;;;5140536;27;20413;-38